Time;durP1;ratioP1;P1;durP2;ratioP2;P2;SDS_P1;SDS_P2;PMS_P1;PMS_P2;Temp;Humidity;BMP_temperature;BMP_pressure;BME280_temperature;BME280_humidity;BME280_pressure;Samples;Min_cycle;Max_cycle;Signal;HPM_P1;HPM_P2
2022/05/28 00:01:22;;;;;;;34.97;32.28;;;;;;;15.80;100.00;100703.41;5021419;28;20049;-84
2022/05/28 00:03:51;;;;;;;34.67;31.67;;;;;;;15.71;100.00;100704.88;5022617;28;20061;-84
2022/05/28 00:06:21;;;;;;;36.60;33.90;;;;;;;15.98;100.00;100700.53;5023832;28;20085;-84
2022/05/28 00:08:56;;;;;;;36.38;33.63;;;;;;;16.16;100.00;100682.59;5020400;28;20056;-85
2022/05/28 00:11:30;;;;;;;37.17;34.47;;;;;;;15.54;100.00;100689.53;5022468;28;20053;-84
2022/05/28 00:14:01;;;;;;;36.97;34.17;;;;;;;16.13;100.00;100691.13;5026788;28;20052;-85
2022/05/28 00:16:28;;;;;;;34.83;32.42;;;;;;;15.88;100.00;100686.94;5018627;28;20065;-83
2022/05/28 00:18:56;;;;;;;33.28;30.77;;;;;;;15.98;100.00;100684.44;5016250;28;20049;-86
2022/05/28 00:21:24;;;;;;;37.20;34.30;;;;;;;15.93;100.00;100684.34;5033127;28;20053;-84
2022/05/28 00:23:55;;;;;;;38.30;35.45;;;;;;;15.93;100.00;100670.97;5020712;28;20053;-83
2022/05/28 00:26:24;;;;;;;39.25;36.53;;;;;;;15.94;100.00;100658.38;5022877;28;20056;-83
2022/05/28 00:28:54;;;;;;;42.78;39.65;;;;;;;15.88;100.00;100667.38;5032783;28;20045;-84
2022/05/28 00:31:22;;;;;;;40.15;37.20;;;;;;;16.07;100.00;100667.94;5030783;28;20057;-84
2022/05/28 00:33:57;;;;;;;42.35;39.25;;;;;;;15.69;100.00;100669.47;5015567;28;20530;-85
2022/05/28 00:36:24;;;;;;;35.13;32.53;;;;;;;15.90;100.00;100671.44;5026325;28;20096;-85
2022/05/28 00:38:54;;;;;;;35.70;33.10;;;;;;;16.10;100.00;100640.72;5029795;28;20056;-86
2022/05/28 00:41:22;;;;;;;40.28;37.38;;;;;;;16.02;100.00;100650.75;5034659;28;20125;-83
2022/05/28 00:43:52;;;;;;;38.38;35.42;;;;;;;15.23;100.00;100649.88;5018753;28;20128;-83
2022/05/28 00:46:25;;;;;;;39.50;36.80;;;;;;;15.33;100.00;100650.03;5030952;28;20505;-85
2022/05/28 00:48:56;;;;;;;39.53;36.83;;;;;;;15.23;100.00;100656.03;5034304;28;20112;-84
2022/05/28 00:51:28;;;;;;;31.15;28.77;;;;;;;15.15;100.00;100652.91;5025682;28;20478;-84
2022/05/28 00:54:01;;;;;;;34.30;31.63;;;;;;;15.25;100.00;100651.25;5021525;28;20371;-83
2022/05/28 00:56:31;;;;;;;35.28;32.60;;;;;;;14.83;100.00;100654.16;5025861;28;20403;-84
2022/05/28 00:59:02;;;;;;;36.17;33.58;;;;;;;14.79;100.00;100647.63;5018982;28;20056;-84
2022/05/28 01:01:35;;;;;;;35.95;33.15;;;;;;;15.22;100.00;100649.06;5034577;28;20053;-83
2022/05/28 01:04:05;;;;;;;;;;;;;;;15.58;100.00;100645.19;5030629;28;20053;-83
2022/05/28 01:06:39;;;;;;;35.42;32.78;;;;;;;15.49;100.00;100641.25;5024255;28;19932;-83
2022/05/28 01:09:12;;;;;;;31.15;28.85;;;;;;;15.39;100.00;100638.38;5031438;28;20057;-83
2022/05/28 01:11:42;;;;;;;;;;;;;;;14.80;100.00;100648.47;5022639;28;20053;-83
2022/05/28 01:14:22;;;;;;;30.63;28.23;;;;;;;15.31;100.00;100647.63;5022622;28;19988;-84
2022/05/28 01:16:55;;;;;;;29.85;27.45;;;;;;;15.41;100.00;100649.66;5019364;28;20045;-82
2022/05/28 01:19:36;;;;;;;38.95;36.05;;;;;;;15.38;100.00;100649.34;5019679;28;20049;-84
2022/05/28 01:22:13;;;;;;;31.05;28.65;;;;;;;15.16;100.00;100647.34;5024408;28;20050;-84
2022/05/28 01:24:53;;;;;;;32.20;29.70;;;;;;;14.80;100.00;100643.13;5028992;28;20046;-84
2022/05/28 01:27:30;;;;;;;31.27;28.88;;;;;;;15.19;100.00;100638.81;5021106;28;20041;-85
2022/05/28 01:30:05;;;;;;;35.80;33.00;;;;;;;15.06;100.00;100649.78;5023227;28;20050;-82
2022/05/28 01:32:38;;;;;;;35.45;32.78;;;;;;;15.28;100.00;100645.44;5028469;28;20459;-83
2022/05/28 01:35:13;;;;;;;34.63;31.85;;;;;;;15.19;100.00;100646.84;5021720;28;20054;-84
2022/05/28 01:37:44;;;;;;;37.80;34.78;;;;;;;15.08;100.00;100645.81;5033865;28;20051;-83
2022/05/28 01:40:12;;;;;;;36.20;33.58;;;;;;;14.81;100.00;100652.75;5026082;28;20050;-83
2022/05/28 01:42:45;;;;;;;33.60;31.10;;;;;;;14.28;100.00;100665.19;5031995;28;20061;-83
2022/05/28 01:45:15;;;;;;;;;;;;;;;14.27;100.00;100660.06;5023090;28;20053;-85
2022/05/28 01:47:43;;;;;;;35.58;32.67;;;;;;;14.80;100.00;100672.53;5022686;28;19928;-84
2022/05/28 01:50:14;;;;;;;34.03;31.58;;;;;;;14.79;100.00;100670.88;5023354;28;20111;-85
2022/05/28 01:52:45;;;;;;;36.08;33.58;;;;;;;14.99;100.00;100665.16;5027027;28;20382;-84
2022/05/28 01:55:18;;;;;;;31.23;28.83;;;;;;;14.94;100.00;100663.19;5033619;28;20049;-82
2022/05/28 01:57:51;;;;;;;33.85;31.00;;;;;;;15.19;100.00;100656.72;5024835;28;20050;-84
2022/05/28 02:05:26;;;;;;;38.47;35.65;;;;;;;15.10;100.00;100650.97;5031957;28;20464;-83
2022/05/28 02:07:52;;;;;;;39.40;36.60;;;;;;;15.32;100.00;100648.44;5026427;28;20510;-83
2022/05/28 02:10:27;;;;;;;32.60;30.17;;;;;;;15.56;100.00;100652.63;5031075;28;20045;-83
2022/05/28 02:13:05;;;;;;;32.90;30.75;;;;;;;15.46;100.00;100654.28;5021423;28;20054;-83
2022/05/28 02:15:41;;;;;;;31.52;29.30;;;;;;;15.38;100.00;100654.69;5030509;28;20054;-83
2022/05/28 02:18:25;;;;;;;34.92;32.63;;;;;;;15.30;100.00;100653.19;5029348;28;20115;-82
2022/05/28 02:21:01;;;;;;;33.58;31.08;;;;;;;15.42;100.00;100643.25;5033728;28;20144;-84
2022/05/28 02:23:34;;;;;;;32.92;30.52;;;;;;;15.60;100.00;100652.16;5033846;28;20123;-84
2022/05/28 02:26:13;;;;;;;37.92;35.40;;;;;;;15.50;100.00;100648.22;5033706;28;20444;-83
2022/05/28 02:28:56;;;;;;;29.33;27.10;;;;;;;15.38;100.00;100636.78;5025102;28;20061;-85
2022/05/28 02:31:27;;;;;;;28.33;26.23;;;;;;;14.69;100.00;100643.94;5033732;28;20486;-83
2022/05/28 02:34:05;;;;;;;32.33;30.00;;;;;;;15.26;100.00;100642.16;5033697;28;20072;-85
2022/05/28 02:36:33;;;;;;;30.58;28.38;;;;;;;15.09;100.00;100642.09;5033895;28;20055;-83
2022/05/28 02:39:02;;;;;;;30.52;28.33;;;;;;;15.33;100.00;100648.19;5031228;28;20053;-82
2022/05/28 02:41:32;;;;;;;28.80;26.67;;;;;;;15.22;100.00;100646.38;5021323;28;20524;-83
2022/05/28 02:44:07;;;;;;;30.10;27.80;;;;;;;15.19;100.00;100640.66;5020942;28;20129;-82
2022/05/28 02:46:35;;;;;;;27.38;25.27;;;;;;;15.25;100.00;100637.03;5020055;28;20119;-83
2022/05/28 02:49:03;;;;;;;28.00;26.10;;;;;;;15.20;100.00;100635.09;5033622;28;20056;-83
2022/05/28 02:51:32;;;;;;;27.45;25.52;;;;;;;15.29;100.00;100651.59;5021263;28;20046;-84
2022/05/28 02:53:58;;;;;;;28.88;26.77;;;;;;;15.05;100.00;100640.94;5033769;28;20053;-83
2022/05/28 02:56:38;;;;;;;29.20;27.05;;;;;;;15.23;100.00;100650.66;5032562;28;20041;-82
2022/05/28 02:59:16;;;;;;;33.67;31.25;;;;;;;15.39;100.00;100648.28;5033448;28;20050;-83
2022/05/28 03:01:51;;;;;;;31.35;29.30;;;;;;;15.53;100.00;100654.97;5026795;28;20139;-84
2022/05/28 03:04:19;;;;;;;32.50;30.40;;;;;;;15.57;100.00;100656.91;5015862;28;20111;-83
2022/05/28 03:06:47;;;;;;;29.63;27.42;;;;;;;15.82;100.00;100658.44;5017100;28;20053;-83
2022/05/28 03:09:17;;;;;;;32.85;30.75;;;;;;;15.76;100.00;100662.94;5034855;28;20041;-84
2022/05/28 03:11:48;;;;;;;33.80;31.50;;;;;;;15.73;100.00;100675.97;5013690;28;20050;-83
2022/05/28 03:14:18;;;;;;;32.70;30.45;;;;;;;15.76;100.00;100673.63;5015455;28;20050;-84
2022/05/28 03:16:59;;;;;;;31.02;28.92;;;;;;;15.76;100.00;100676.31;5028686;28;20092;-82
2022/05/28 03:19:28;;;;;;;32.05;29.85;;;;;;;15.85;100.00;100676.72;5018217;28;20045;-83
2022/05/28 03:21:55;;;;;;;31.02;28.88;;;;;;;15.89;100.00;100680.53;5024766;28;20057;-85
2022/05/28 03:24:23;;;;;;;33.92;31.17;;;;;;;16.15;100.00;100676.41;5027638;28;20111;-83
2022/05/28 03:27:01;;;;;;;33.97;31.85;;;;;;;16.01;100.00;100685.84;5019697;28;20057;-83
2022/05/28 03:29:30;;;;;;;32.88;30.58;;;;;;;16.00;100.00;100687.69;5021551;28;20131;-83
2022/05/28 03:31:59;;;;;;;28.88;27.02;;;;;;;15.95;100.00;100697.53;5032331;28;20042;-84
2022/05/28 03:34:26;;;;;;;31.08;29.17;;;;;;;16.08;100.00;100694.50;5020665;28;20053;-83
2022/05/28 03:36:54;;;;;;;32.80;30.67;;;;;;;16.10;100.00;100688.94;5025314;28;20449;-82
2022/05/28 03:39:23;;;;;;;30.63;28.52;;;;;;;16.27;100.00;100692.41;5029569;28;20057;-83
2022/05/28 03:41:54;;;;;;;30.50;28.40;;;;;;;16.27;100.00;100693.22;5032950;28;20056;-85
2022/05/28 03:44:23;;;;;;;27.67;25.88;;;;;;;16.54;100.00;100694.41;5023641;28;20072;-82
2022/05/28 03:46:52;;;;;;;30.77;28.70;;;;;;;16.71;100.00;100690.66;5024141;28;20466;-83
2022/05/28 03:49:23;;;;;;;30.67;28.67;;;;;;;16.74;100.00;100692.03;5018788;28;20460;-84
2022/05/28 03:51:51;;;;;;;31.85;29.95;;;;;;;16.89;100.00;100691.47;5026779;28;20041;-83
2022/05/28 03:54:19;;;;;;;32.53;30.40;;;;;;;16.85;100.00;100691.16;5016227;28;20053;-84
2022/05/28 03:56:50;;;;;;;30.17;27.92;;;;;;;16.77;100.00;100691.56;5034841;28;20060;-83
2022/05/28 03:59:19;;;;;;;31.75;29.75;;;;;;;16.78;100.00;100681.66;5017815;28;20054;-84
2022/05/28 04:01:46;;;;;;;31.92;29.92;;;;;;;16.92;100.00;100690.97;5024173;28;20041;-83
2022/05/28 04:04:18;;;;;;;30.38;28.48;;;;;;;17.16;100.00;100694.22;5035318;28;21746;-84
2022/05/28 04:06:45;;;;;;;29.73;27.83;;;;;;;16.93;100.00;100698.75;5036047;28;20042;-83
2022/05/28 04:09:12;;;;;;;32.15;29.92;;;;;;;17.12;100.00;100698.44;5034995;28;20053;-84
2022/05/28 04:11:39;;;;;;;30.50;28.70;;;;;;;17.13;100.00;100695.53;5035489;28;20049;-84
2022/05/28 04:14:06;;;;;;;31.45;29.35;;;;;;;17.36;100.00;100707.84;5032146;28;20045;-84
2022/05/28 04:16:35;;;;;;;30.33;28.42;;;;;;;17.71;100.00;100705.81;5034518;28;20049;-83
2022/05/28 04:19:04;;;;;;;28.40;26.52;;;;;;;17.56;100.00;100706.47;5033245;28;20058;-84
2022/05/28 04:21:33;;;;;;;29.73;27.83;;;;;;;17.70;100.00;100710.41;5035834;28;20092;-85
2022/05/28 04:24:04;;;;;;;29.65;27.65;;;;;;;17.96;100.00;100710.66;5033456;28;20045;-85
2022/05/28 04:26:39;;;;;;;30.45;28.60;;;;;;;18.15;100.00;100703.81;5032988;28;20375;-84
2022/05/28 04:29:12;;;;;;;28.67;26.77;;;;;;;17.89;100.00;100704.69;5028791;28;20552;-83
2022/05/28 04:31:40;;;;;;;27.40;25.73;;;;;;;18.03;100.00;100708.56;5031067;28;20061;-84
2022/05/28 04:34:14;;;;;;;30.23;28.23;;;;;;;18.50;100.00;100710.56;5018941;28;20448;-84
2022/05/28 04:36:54;;;;;;;27.10;25.52;;;;;;;18.43;100.00;100707.28;5030500;28;20405;-84
2022/05/28 04:39:25;;;;;;;29.38;27.45;;;;;;;18.62;100.00;100708.47;5023545;28;20049;-83
2022/05/28 04:41:57;;;;;;;27.08;25.58;;;;;;;18.88;100.00;100708.66;5030256;28;20477;-83
2022/05/28 04:44:26;;;;;;;27.95;26.35;;;;;;;18.67;100.00;100708.53;5028646;28;20057;-83
2022/05/28 04:46:54;;;;;;;26.90;25.05;;;;;;;18.80;100.00;100715.34;5018898;28;20473;-83
2022/05/28 04:49:22;;;;;;;32.28;30.48;;;;;;;18.80;100.00;100720.72;5021706;28;20049;-82
2022/05/28 04:51:51;;;;;;;28.65;26.95;;;;;;;18.93;100.00;100714.06;5031625;28;20111;-81
2022/05/28 04:54:21;;;;;;;27.50;25.90;;;;;;;18.94;100.00;100723.75;5022233;28;20126;-82
2022/05/28 04:56:49;;;;;;;26.92;25.33;;;;;;;19.27;100.00;100724.44;5020566;28;20050;-83
2022/05/28 04:59:21;;;;;;;28.55;26.75;;;;;;;19.53;100.00;100728.03;5021352;28;20045;-82
2022/05/28 05:01:49;;;;;;;28.13;26.60;;;;;;;19.72;100.00;100728.38;5022301;28;20461;-84
2022/05/28 05:04:16;;;;;;;27.13;25.52;;;;;;;19.57;100.00;100721.84;5018550;28;20053;-83
2022/05/28 05:06:44;;;;;;;27.45;25.40;;;;;;;19.65;100.00;100726.75;5021387;28;20053;-84
2022/05/28 05:09:16;;;;;;;28.50;26.48;;;;;;;19.90;100.00;100727.88;5034984;28;20061;-84
2022/05/28 05:11:54;;;;;;;31.02;29.33;;;;;;;19.86;100.00;100741.06;5015672;28;20461;-85
2022/05/28 05:14:20;;;;;;;31.63;29.08;;;;;;;20.31;100.00;100736.78;5034077;28;20056;-81
2022/05/28 05:16:47;;;;;;;25.73;24.02;;;;;;;20.39;100.00;100730.03;5031209;28;20045;-84
2022/05/28 05:19:14;;;;;;;26.60;24.55;;;;;;;20.93;100.00;100739.44;5025711;28;20115;-82
2022/05/28 05:21:48;;;;;;;27.77;25.98;;;;;;;20.79;100.00;100729.22;5034962;28;20103;-85
2022/05/28 05:24:17;;;;;;;28.08;26.00;;;;;;;20.92;100.00;100735.13;5030909;28;20045;-84
2022/05/28 05:26:53;;;;;;;29.25;27.30;;;;;;;20.88;100.00;100729.47;5019127;28;20525;-83
2022/05/28 05:29:26;;;;;;;29.17;27.48;;;;;;;21.12;100.00;100729.66;5020700;28;20505;-84
2022/05/28 05:31:56;;;;;;;30.58;28.48;;;;;;;20.57;100.00;100726.84;5030616;28;20433;-85
2022/05/28 05:34:25;;;;;;;28.65;26.83;;;;;;;21.14;100.00;100726.66;5026464;28;20042;-83
2022/05/28 05:36:58;;;;;;;28.42;26.73;;;;;;;21.52;100.00;100727.06;5015148;28;20426;-83
2022/05/28 05:39:27;;;;;;;30.33;28.42;;;;;;;21.63;100.00;100718.59;5020242;28;20107;-84
2022/05/28 05:41:56;;;;;;;27.88;26.20;;;;;;;21.89;100.00;100715.75;5025104;28;20458;-83
2022/05/28 05:44:26;;;;;;;27.85;26.30;;;;;;;21.81;100.00;100711.75;5020017;28;20461;-84
2022/05/28 05:46:53;;;;;;;27.50;25.98;;;;;;;22.08;100.00;100718.59;5016168;28;20042;-81
2022/05/28 05:49:30;;;;;;;27.42;25.77;;;;;;;21.58;100.00;100715.16;5026789;28;20103;-84
2022/05/28 05:52:08;;;;;;;28.45;26.95;;;;;;;21.52;100.00;100722.47;5034356;28;20056;-85
2022/05/28 05:54:35;;;;;;;27.85;26.40;;;;;;;21.76;100.00;100713.69;5027431;28;20052;-85
2022/05/28 05:57:05;;;;;;;28.35;26.70;;;;;;;21.81;100.00;100705.53;5024912;28;20522;-82
2022/05/28 05:59:34;;;;;;;27.30;25.63;;;;;;;21.87;100.00;100699.81;5027269;28;20045;-82
2022/05/28 06:02:08;;;;;;;26.75;25.15;;;;;;;21.98;100.00;100695.13;5025421;28;20057;-82
2022/05/28 06:07:28;;;;;;;26.88;25.17;;;;;;;21.93;100.00;100698.66;5022049;28;20046;-81
2022/05/28 06:09:55;;;;;;;;;;;;;;;21.91;100.00;100691.97;5025696;28;20045;-82
2022/05/28 06:12:23;;;;;;;32.15;28.95;;;;;;;22.03;100.00;100696.97;5023312;28;19921;-82
2022/05/28 06:14:50;;;;;;;38.75;34.95;;;;;;;22.04;100.00;100690.50;5027224;28;20049;-82
2022/05/28 06:17:17;;;;;;;39.13;35.33;;;;;;;22.30;100.00;100696.50;5021848;28;20042;-81
2022/05/28 06:19:45;;;;;;;52.60;44.03;;;;;;;22.34;100.00;100706.50;5023800;28;20045;-81
2022/05/28 06:22:15;;;;;;;33.75;31.02;;;;;;;22.26;100.00;100698.19;5023318;28;20049;-81
2022/05/28 06:24:42;;;;;;;30.33;28.08;;;;;;;22.29;100.00;100703.03;5025158;28;20135;-82
2022/05/28 06:27:10;;;;;;;29.30;27.50;;;;;;;22.38;100.00;100704.81;5020902;28;20049;-82
2022/05/28 06:29:38;;;;;;;28.38;26.67;;;;;;;22.19;100.00;100703.91;5023749;28;20046;-81
2022/05/28 06:32:06;;;;;;;29.95;28.15;;;;;;;22.55;100.00;100709.00;5024676;28;20474;-81
2022/05/28 06:34:41;;;;;;;29.25;27.65;;;;;;;22.15;100.00;100705.56;5020770;28;20464;-83
2022/05/28 06:37:11;;;;;;;26.90;25.20;;;;;;;22.49;100.00;100707.44;5020902;28;20042;-81
2022/05/28 06:39:40;;;;;;;29.45;27.55;;;;;;;22.31;100.00;100701.66;5018917;28;20061;-83
2022/05/28 06:42:08;;;;;;;29.60;27.70;;;;;;;22.39;100.00;100706.44;5027077;28;20045;-82
2022/05/28 06:44:35;;;;;;;30.42;28.23;;;;;;;22.43;100.00;100705.88;5025071;28;20114;-83
2022/05/28 06:47:04;;;;;;;27.67;26.08;;;;;;;22.08;100.00;100695.03;5021667;28;20087;-84
2022/05/28 06:49:33;;;;;;;27.73;25.80;;;;;;;22.13;100.00;100689.59;5026438;28;20448;-83
2022/05/28 06:52:01;;;;;;;27.45;25.85;;;;;;;22.27;100.00;100688.97;5029458;28;20120;-83
2022/05/28 06:54:29;;;;;;;26.98;24.83;;;;;;;22.49;100.00;100683.88;5032831;28;20045;-81
2022/05/28 06:56:56;;;;;;;28.38;26.00;;;;;;;22.54;100.00;100673.03;5033365;28;20052;-82
2022/05/28 06:59:25;;;;;;;27.42;25.77;;;;;;;22.68;100.00;100667.72;5017905;28;20104;-83
2022/05/28 07:01:53;;;;;;;38.08;34.08;;;;;;;22.40;100.00;100669.38;5028145;28;20398;-82
2022/05/28 07:04:21;;;;;;;39.05;35.10;;;;;;;22.52;100.00;100660.88;5030231;28;20089;-83
2022/05/28 07:06:49;;;;;;;28.75;26.85;;;;;;;22.36;100.00;100662.91;5037345;28;20564;-83
2022/05/28 07:09:23;;;;;;;28.63;26.85;;;;;;;22.21;100.00;100660.34;5029984;28;20121;-82
2022/05/28 07:11:51;;;;;;;28.40;26.80;;;;;;;22.25;100.00;100656.00;5025126;28;20072;-83
2022/05/28 07:14:19;;;;;;;28.30;26.50;;;;;;;22.18;100.00;100665.25;5036523;28;20060;-84
2022/05/28 07:16:53;;;;;;;26.77;24.95;;;;;;;22.41;100.00;100646.63;5036199;28;20049;-82
2022/05/28 07:19:24;;;;;;;27.15;25.27;;;;;;;22.50;100.00;100652.22;5028170;28;20100;-82
2022/05/28 07:21:51;;;;;;;27.25;25.55;;;;;;;22.45;100.00;100638.72;5033120;28;20049;-83
2022/05/28 07:24:18;;;;;;;27.15;25.45;;;;;;;22.55;100.00;100644.06;5026200;28;20485;-82
2022/05/28 07:26:45;;;;;;;26.70;24.90;;;;;;;22.37;100.00;100635.56;5028843;28;20060;-82
2022/05/28 07:29:13;;;;;;;26.65;25.05;;;;;;;22.41;100.00;100635.81;5036348;28;20045;-82
2022/05/28 07:31:40;;;;;;;26.73;25.33;;;;;;;22.38;100.00;100634.47;5035843;28;20136;-81
2022/05/28 07:34:09;;;;;;;26.08;24.48;;;;;;;22.36;100.00;100630.44;5032930;28;20045;-83
2022/05/28 07:36:37;;;;;;;27.15;25.75;;;;;;;22.34;100.00;100619.91;5030848;28;20057;-84
2022/05/28 07:39:05;;;;;;;25.98;24.58;;;;;;;22.44;100.00;100618.19;5035906;28;20049;-82
2022/05/28 07:41:32;;;;;;;28.42;26.13;;;;;;;22.53;100.00;100609.16;5032337;28;20046;-82
2022/05/28 07:44:01;;;;;;;29.02;26.83;;;;;;;22.71;100.00;100598.66;5032769;28;20054;-82
2022/05/28 07:46:31;;;;;;;27.88;25.92;;;;;;;22.75;100.00;100591.56;5030567;28;20049;-83
2022/05/28 07:49:02;;;;;;;27.38;25.77;;;;;;;22.90;100.00;100575.13;5024157;28;20371;-81
2022/05/28 07:51:30;;;;;;;29.23;27.33;;;;;;;22.91;100.00;100576.75;5030727;28;20052;-81
2022/05/28 07:53:59;;;;;;;51.97;38.38;;;;;;;22.76;100.00;100563.41;5032449;28;20055;-82
2022/05/28 07:56:26;;;;;;;92.03;53.67;;;;;;;22.77;100.00;100562.31;5028364;28;20118;-84
2022/05/28 07:58:54;;;;;;;228.80;107.13;;;;;;;23.00;100.00;100571.50;5033738;28;20257;-82
2022/05/28 08:01:25;;;;;;;35.67;32.08;;;;;;;23.14;100.00;100569.66;5035612;28;20049;-82
2022/05/28 08:03:53;;;;;;;43.55;37.25;;;;;;;23.48;100.00;100591.13;5033183;28;20087;-82
2022/05/28 08:06:25;;;;;;;49.97;42.63;;;;;;;23.68;100.00;100600.00;5029565;28;20061;-83
2022/05/28 08:08:56;;;;;;;28.70;26.83;;;;;;;23.43;100.00;100626.41;5031208;28;20064;-83
2022/05/28 08:14:46;;;;;;;26.98;25.38;;;;;;;23.55;100.00;100653.06;5027558;28;20119;-83
2022/05/28 08:17:15;;;;;;;28.77;26.85;;;;;;;23.91;100.00;100645.22;5033631;28;20458;-82
2022/05/28 08:19:41;;;;;;;27.60;26.00;;;;;;;24.53;100.00;100654.97;5033788;28;20049;-85
2022/05/28 08:24:53;;;;;;;26.52;24.58;;;;;;;24.34;100.00;100634.13;5026420;28;20052;-82
2022/05/28 08:27:20;;;;;;;27.95;26.05;;;;;;;24.72;100.00;100639.41;5034958;28;20049;-82
2022/05/28 08:29:50;;;;;;;27.27;25.63;;;;;;;25.01;100.00;100647.22;5034134;28;20057;-84
2022/05/28 08:32:18;;;;;;;27.70;26.20;;;;;;;24.58;100.00;100638.59;5035211;28;20123;-81
2022/05/28 08:34:45;;;;;;;29.25;27.55;;;;;;;25.18;100.00;100637.66;5027617;28;20064;-84
2022/05/28 08:37:12;;;;;;;28.15;26.27;;;;;;;25.16;100.00;100637.16;5034970;28;20060;-82
2022/05/28 08:39:39;;;;;;;28.70;26.73;;;;;;;24.54;100.00;100629.44;5034933;28;20077;-82
2022/05/28 08:42:10;;;;;;;26.80;25.20;;;;;;;24.68;100.00;100616.66;5033075;28;20476;-82
2022/05/28 08:44:55;;;;;;;27.90;26.20;;;;;;;25.02;100.00;100620.84;5030873;28;20041;-83
2022/05/28 08:47:28;;;;;;;27.58;25.90;;;;;;;25.25;100.00;100619.81;5032507;28;20130;-84
2022/05/28 08:49:55;;;;;;;27.60;25.80;;;;;;;25.61;100.00;100615.47;5034124;28;20064;-83
2022/05/28 08:52:30;;;;;;;28.33;26.45;;;;;;;25.39;100.00;100617.06;5035458;28;20050;-83
2022/05/28 08:55:11;;;;;;;26.52;25.02;;;;;;;25.53;100.00;100617.78;5021267;28;20545;-85
2022/05/28 08:57:59;;;;;;;26.52;24.90;;;;;;;25.30;100.00;100621.63;5025208;28;20452;-82
2022/05/28 09:00:34;;;;;;;28.10;25.88;;;;;;;25.51;100.00;100622.75;5035107;28;20099;-81
2022/05/28 09:03:07;;;;;;;27.30;25.65;;;;;;;25.19;100.00;100614.81;5032380;28;20119;-81
2022/05/28 09:05:41;;;;;;;26.45;24.77;;;;;;;24.78;100.00;100612.94;5028703;28;20398;-82
2022/05/28 09:08:10;;;;;;;26.83;24.83;;;;;;;25.33;100.00;100604.72;5033782;28;20107;-82
2022/05/28 09:10:44;;;;;;;27.88;26.00;;;;;;;26.59;100.00;100606.41;5025081;28;20538;-81
2022/05/28 09:13:21;;;;;;;26.92;25.13;;;;;;;26.36;100.00;100603.75;5032978;28;20060;-83
2022/05/28 09:15:52;;;;;;;25.88;24.17;;;;;;;26.08;100.00;100596.88;5020537;28;20041;-80
2022/05/28 09:18:21;;;;;;;26.08;24.30;;;;;;;25.70;100.00;100594.56;5019124;28;20053;-82
2022/05/28 09:20:50;;;;;;;26.30;24.52;;;;;;;25.84;100.00;100587.19;5026433;28;20532;-81
2022/05/28 09:23:17;;;;;;;26.20;24.48;;;;;;;25.55;100.00;100579.44;5027376;28;20049;-84
2022/05/28 09:25:46;;;;;;;25.95;24.45;;;;;;;27.05;100.00;100572.31;5027270;28;20037;-80
2022/05/28 09:28:30;;;;;;;26.05;24.27;;;;;;;26.19;100.00;100571.00;5022627;28;20053;-79
2022/05/28 09:31:30;;;;;;;26.40;24.70;;;;;;;26.62;96.98;100568.44;5023637;28;20057;-83
2022/05/28 09:34:20;;;;;;;25.15;23.55;;;;;;;26.20;91.96;100578.88;5016390;28;20057;-83
2022/05/28 09:37:02;;;;;;;26.45;24.58;;;;;;;25.98;100.00;100576.19;5022253;28;20080;-82
2022/05/28 09:39:43;;;;;;;26.00;24.30;;;;;;;26.55;96.87;100572.75;5020470;28;20060;-82
2022/05/28 09:42:24;;;;;;;24.92;23.42;;;;;;;27.04;88.57;100565.28;5026946;28;20489;-83
2022/05/28 09:45:16;;;;;;;25.13;23.33;;;;;;;27.24;86.82;100572.84;5026817;28;20139;-83
2022/05/28 09:47:51;;;;;;;25.48;23.65;;;;;;;27.75;85.08;100565.72;4999185;28;20068;-84
2022/05/28 09:50:32;;;;;;;25.50;23.77;;;;;;;27.85;92.21;100567.31;5031495;28;20088;-82
2022/05/28 09:56:12;;;;;;;26.83;24.98;;;;;;;28.68;75.76;100569.50;5027120;28;20115;-82
2022/05/28 09:58:42;;;;;;;26.45;24.80;;;;;;;28.17;86.57;100565.94;5031886;28;20062;-82
2022/05/28 10:01:12;;;;;;;26.40;24.50;;;;;;;28.05;83.22;100566.63;5032882;28;20041;-83
2022/05/28 10:06:32;;;;;;;26.38;24.58;;;;;;;27.30;87.01;100555.22;5032442;28;20505;-83
2022/05/28 10:08:59;;;;;;;26.38;24.67;;;;;;;27.36;93.80;100555.84;5032845;28;20482;-81
2022/05/28 10:11:30;;;;;;;27.27;25.48;;;;;;;27.06;86.42;100549.44;5028652;28;20045;-82
2022/05/28 10:14:03;;;;;;;27.05;25.20;;;;;;;28.34;80.29;100553.31;5030734;28;20126;-80
2022/05/28 10:16:38;;;;;;;26.13;24.35;;;;;;;27.92;86.36;100553.97;5024789;28;20053;-80
2022/05/28 10:19:20;;;;;;;27.13;25.13;;;;;;;27.41;86.06;100547.47;5026725;28;20463;-81
2022/05/28 10:22:02;;;;;;;;;;;;;;;28.29;82.81;100541.47;5030378;28;20100;-82
2022/05/28 10:24:41;;;;;;;27.08;25.23;;;;;;;28.14;81.00;100535.72;5032611;28;20336;-80
2022/05/28 10:27:23;;;;;;;27.65;25.63;;;;;;;28.46;73.44;100526.91;5020973;28;20103;-81
2022/05/28 10:29:59;;;;;;;;;;;;;;;29.07;75.19;100522.97;5020892;28;20060;-82
2022/05/28 10:32:35;;;;;;;26.77;25.00;;;;;;;27.82;80.87;100525.13;5023276;28;20004;-79
2022/05/28 10:35:37;;;;;;;;;;;;;;;;;;;;;
2022/05/28 10:38:36;;;;;;;27.33;25.43;;;;;;;29.72;69.71;100504.94;5020577;28;20053;-82
2022/05/28 10:41:40;;;;;;;27.83;25.83;;;;;;;29.17;74.00;100508.88;5035367;28;20056;-81
2022/05/28 10:44:12;;;;;;;26.95;25.15;;;;;;;27.66;81.87;100506.84;5022187;28;20049;-81
2022/05/28 10:47:05;;;;;;;26.08;24.38;;;;;;;28.92;75.00;100503.25;5034559;28;20049;-82
2022/05/28 10:49:42;;;;;;;26.95;25.08;;;;;;;28.06;79.11;100513.63;5027662;28;20496;-79
2022/05/28 10:52:23;;;;;;;28.15;26.25;;;;;;;29.02;78.33;100504.84;5034062;28;20443;-80
2022/05/28 10:55:07;;;;;;;28.52;26.63;;;;;;;29.54;72.36;100503.50;5032778;28;20049;-80
2022/05/28 10:58:11;;;;;;;26.65;24.95;;;;;;;29.10;74.26;100493.00;5036435;28;20060;-79
2022/05/28 11:00:47;;;;;;;26.77;24.98;;;;;;;28.96;77.59;100487.81;5029524;28;20406;-79
2022/05/28 11:03:43;;;;;;;28.33;26.20;;;;;;;28.43;76.24;100492.06;5033412;28;20053;-80
2022/05/28 11:06:39;;;;;;;27.98;25.63;;;;;;;29.36;76.92;100490.03;5036100;28;20057;-81
2022/05/28 11:09:18;;;;;;;28.13;26.13;;;;;;;28.40;78.29;100486.44;5036148;28;20049;-80
2022/05/28 11:11:58;;;;;;;27.70;25.63;;;;;;;27.85;78.33;100489.00;5036271;28;20045;-80
2022/05/28 11:14:59;;;;;;;28.20;26.20;;;;;;;30.17;83.60;100470.38;5027207;28;20073;-82
2022/05/28 11:17:55;;;;;;;28.73;26.83;;;;;;;29.91;67.89;100466.06;5030977;28;20462;-81
2022/05/28 11:26:41;;;;;;;25.63;24.02;;;;;;;30.54;69.33;100455.50;5020224;28;20208;-82
2022/05/28 11:29:41;;;;;;;28.40;26.30;;;;;;;29.91;67.72;100452.38;5036128;28;20045;-82
2022/05/28 11:32:16;;;;;;;28.88;26.60;;;;;;;30.57;66.48;100449.31;5029914;28;20119;-82
2022/05/28 11:34:50;;;;;;;28.40;25.88;;;;;;;30.82;64.91;100453.94;5034652;28;20061;-81
2022/05/28 11:37:47;;;;;;;27.95;25.83;;;;;;;30.02;63.74;100452.72;5023111;28;20061;-82
2022/05/28 11:40:23;;;;;;;27.05;25.10;;;;;;;28.73;75.68;100451.84;4933987;29;20055;-80
2022/05/28 11:43:39;;;;;;;28.08;26.17;;;;;;;30.11;68.51;100448.72;4964109;28;20050;-81
2022/05/28 11:46:24;;;;;;;27.48;25.40;;;;;;;30.06;73.72;100448.94;5031601;28;20464;-80
2022/05/28 11:51:53;;;;;;;27.55;25.50;;;;;;;30.60;67.24;100441.56;5034531;28;20060;-80
2022/05/28 11:54:33;;;;;;;27.15;25.17;;;;;;;30.81;70.68;100428.47;5028447;28;20140;-81
2022/05/28 11:57:05;;;;;;;27.55;25.60;;;;;;;29.57;76.95;100439.91;5032743;28;20085;-81
2022/05/28 11:59:38;;;;;;;27.05;25.10;;;;;;;29.35;76.33;100425.53;5034674;28;20043;-81
2022/05/28 12:02:10;;;;;;;26.77;24.60;;;;;;;30.67;77.63;100428.84;5033838;28;20053;-82